createdAt,value
2023-02-21T00:00:48.030Z,15.23
2023-02-21T00:01:38.500Z,15.70
2023-02-21T00:02:29.915Z,15.43
2023-02-21T00:03:20.348Z,16.27
2023-02-21T00:04:10.605Z,15.63
2023-02-21T00:05:01.323Z,15.93
2023-02-21T00:05:51.892Z,15.43
2023-02-21T00:06:42.267Z,16.23
2023-02-21T00:07:32.612Z,15.63
2023-02-21T00:08:23.029Z,15.97
2023-02-21T00:09:13.440Z,14.93
2023-02-21T00:10:03.651Z,15.23
2023-02-21T00:10:54.339Z,15.27
2023-02-21T00:11:44.627Z,13.67
2023-02-21T00:12:34.935Z,14.97
2023-02-21T00:13:25.325Z,14.03
2023-02-21T00:14:15.802Z,15.63
2023-02-21T00:15:06.051Z,14.53
2023-02-21T00:15:56.539Z,14.77
2023-02-21T00:16:46.965Z,15.57
2023-02-21T00:17:37.538Z,15.37
2023-02-21T00:18:27.834Z,15.40
2023-02-21T00:19:18.040Z,15.83
2023-02-21T00:20:08.537Z,14.10
2023-02-21T00:20:58.952Z,14.17
2023-02-21T00:21:49.945Z,14.63
2023-02-21T00:22:40.220Z,14.67
2023-02-21T00:23:30.569Z,15.07
2023-02-21T00:24:20.939Z,15.10
2023-02-21T00:25:11.224Z,13.83
2023-02-21T00:26:01.506Z,14.43
2023-02-21T00:26:51.671Z,14.70
2023-02-21T00:27:43.691Z,14.00
2023-02-21T00:28:34.071Z,13.60
2023-02-21T00:29:25.172Z,14.07
2023-02-21T00:30:15.771Z,13.00
2023-02-21T00:31:06.293Z,14.00
2023-02-21T00:31:57.024Z,14.30
2023-02-21T00:32:47.755Z,13.50
2023-02-21T00:33:38.142Z,13.00
2023-02-21T00:34:28.277Z,12.83
2023-02-21T00:35:18.715Z,14.63
2023-02-21T00:36:09.106Z,15.33
2023-02-21T00:36:59.317Z,14.07
2023-02-21T00:37:49.631Z,13.27
2023-02-21T00:38:39.836Z,13.50
2023-02-21T00:39:30.154Z,13.03
2023-02-21T00:40:20.536Z,13.63
2023-02-21T00:41:10.974Z,13.80
2023-02-21T00:42:01.414Z,14.07
2023-02-21T00:42:51.707Z,14.07
2023-02-21T00:43:50.100Z,14.43
2023-02-21T00:44:40.320Z,15.27
2023-02-21T00:45:31.012Z,15.23
2023-02-21T00:46:21.161Z,14.53
2023-02-21T00:47:12.082Z,14.47
2023-02-21T00:48:02.457Z,14.27
2023-02-21T00:48:52.738Z,14.67
2023-02-21T00:49:43.017Z,15.10
2023-02-21T00:50:33.769Z,14.90
2023-02-21T00:51:24.461Z,15.57
2023-02-21T00:52:14.655Z,14.43
2023-02-21T00:53:04.952Z,14.90
2023-02-21T00:53:55.475Z,15.63
2023-02-21T00:54:45.925Z,14.13
2023-02-21T00:55:36.161Z,14.27
2023-02-21T00:56:26.517Z,14.13
2023-02-21T00:57:16.759Z,14.57
2023-02-21T00:58:06.959Z,14.43
2023-02-21T00:58:57.069Z,14.50
2023-02-21T00:59:47.488Z,15.47
2023-02-21T01:00:41.475Z,14.03
2023-02-21T01:01:31.910Z,13.90
2023-02-21T01:02:22.223Z,13.73
2023-02-21T01:03:12.786Z,15.07
2023-02-21T01:04:02.971Z,15.37
2023-02-21T01:04:53.389Z,13.87
2023-02-21T01:05:43.831Z,14.60
2023-02-21T01:06:34.061Z,14.80
2023-02-21T01:07:24.252Z,14.63
2023-02-21T01:08:14.725Z,14.40
2023-02-21T01:09:06.115Z,15.20
2023-02-21T01:09:56.419Z,15.40
2023-02-21T01:10:46.925Z,14.93
2023-02-21T01:11:40.342Z,14.47
2023-02-21T01:12:30.563Z,14.50
2023-02-21T01:13:21.507Z,15.37
2023-02-21T01:14:11.681Z,14.67
2023-02-21T01:15:02.201Z,15.23
2023-02-21T01:15:52.328Z,15.77
2023-02-21T01:16:42.411Z,15.53
2023-02-21T01:17:33.029Z,14.47
2023-02-21T01:18:24.006Z,13.87
2023-02-21T01:19:14.402Z,14.27
2023-02-21T01:20:04.847Z,13.97
2023-02-21T01:20:55.055Z,14.90
2023-02-21T01:21:45.139Z,14.57
2023-02-21T01:22:35.637Z,14.30
2023-02-21T01:23:25.796Z,15.63
2023-02-21T01:24:16.281Z,14.93
2023-02-21T01:25:10.617Z,14.93
2023-02-21T01:26:01.123Z,14.63
2023-02-21T01:26:51.483Z,14.53
2023-02-21T01:27:41.924Z,14.13
2023-02-21T01:28:32.467Z,14.60
2023-02-21T01:29:22.847Z,15.40
2023-02-21T01:30:13.108Z,14.13
2023-02-21T01:31:03.644Z,14.20
2023-02-21T01:31:54.137Z,14.30
2023-02-21T01:32:44.303Z,14.17
2023-02-21T01:33:34.448Z,13.37
2023-02-21T01:34:25.385Z,13.50
2023-02-21T01:35:16.137Z,13.20
2023-02-21T01:36:06.366Z,13.17
2023-02-21T01:37:00.241Z,12.70
2023-02-21T01:37:50.434Z,11.53
2023-02-21T01:38:40.708Z,11.37
2023-02-21T01:39:31.620Z,11.77
2023-02-21T01:40:22.309Z,11.63
2023-02-21T01:41:12.632Z,11.60
2023-02-21T01:42:03.040Z,12.33
2023-02-21T01:42:53.585Z,11.60
2023-02-21T01:43:46.283Z,11.73
2023-02-21T01:44:59.584Z,11.37
2023-02-21T01:45:55.577Z,12.80
2023-02-21T01:46:45.964Z,11.67
2023-02-21T01:47:36.622Z,12.20
2023-02-21T01:48:32.186Z,11.27
2023-02-21T01:49:35.126Z,11.37
2023-02-21T01:50:37.236Z,11.87
2023-02-21T01:51:30.905Z,11.53
2023-02-21T01:52:23.520Z,11.17
2023-02-21T01:53:14.278Z,10.83
2023-02-21T01:54:05.309Z,11.20
2023-02-21T01:55:01.764Z,10.87
2023-02-21T01:55:56.901Z,11.73
2023-02-21T01:56:49.074Z,12.13
2023-02-21T01:57:41.052Z,12.57
2023-02-21T01:58:31.368Z,11.90
2023-02-21T01:59:22.019Z,12.00
2023-02-21T02:00:16.034Z,11.73
2023-02-21T02:01:06.442Z,12.83
2023-02-21T02:02:06.013Z,11.50
2023-02-21T02:03:24.002Z,11.83
2023-02-21T02:04:14.653Z,12.27
2023-02-21T02:05:06.597Z,11.63
2023-02-21T02:05:59.480Z,12.17
2023-02-21T02:06:49.975Z,12.13
2023-02-21T02:07:40.210Z,12.40
2023-02-21T02:08:30.767Z,11.63
2023-02-21T02:09:38.605Z,11.73
2023-02-21T02:10:30.828Z,13.03
2023-02-21T02:12:12.306Z,12.10
2023-02-21T02:13:16.049Z,13.53
2023-02-21T02:13:47.863Z,13.57
2023-02-21T02:14:38.123Z,12.70
2023-02-21T02:15:31.816Z,12.43
2023-02-21T02:16:30.044Z,12.40
2023-02-21T02:17:31.295Z,12.80
2023-02-21T02:18:45.961Z,12.27
2023-02-21T02:19:33.050Z,13.07
2023-02-21T02:20:54.024Z,13.80
2023-02-21T02:21:34.499Z,12.70
2023-02-21T02:22:09.238Z,11.97
2023-02-21T02:23:17.719Z,12.40
2023-02-21T02:23:55.207Z,13.13
2023-02-21T02:24:54.096Z,13.67
2023-02-21T02:25:56.037Z,13.10
2023-02-21T02:27:12.174Z,12.67
2023-02-21T02:28:31.690Z,13.63
2023-02-21T02:29:32.599Z,13.00
2023-02-21T02:30:30.977Z,12.13
2023-02-21T02:31:40.463Z,12.90
2023-02-21T02:32:49.542Z,12.87
2023-02-21T02:33:29.982Z,11.93
2023-02-21T02:34:39.453Z,13.10
2023-02-21T02:35:19.968Z,12.17
2023-02-21T02:36:10.178Z,11.90
2023-02-21T02:36:53.163Z,12.97
2023-02-21T02:37:30.853Z,13.43
2023-02-21T02:38:13.924Z,12.97
2023-02-21T02:39:17.984Z,12.03
2023-02-21T02:39:55.701Z,12.43
2023-02-21T02:40:46.879Z,12.30
2023-02-21T02:41:47.752Z,12.03
2023-02-21T02:42:41.304Z,12.07
2023-02-21T02:43:33.692Z,12.77
2023-02-21T02:44:10.756Z,11.53
2023-02-21T02:44:52.245Z,12.47
2023-02-21T02:45:40.816Z,12.83
2023-02-21T02:46:23.613Z,12.77
2023-02-21T02:47:00.808Z,13.40
2023-02-21T02:47:36.928Z,12.17
2023-02-21T02:48:21.657Z,11.07
2023-02-21T02:49:03.340Z,12.17
2023-02-21T02:49:41.303Z,11.10
2023-02-21T02:50:14.639Z,12.17
2023-02-21T02:50:49.389Z,12.57
2023-02-21T02:51:21.988Z,12.37
2023-02-21T02:51:54.066Z,12.70
2023-02-21T02:52:25.915Z,13.50
2023-02-21T02:53:03.361Z,12.73
2023-02-21T02:53:36.156Z,13.33
2023-02-21T02:54:07.953Z,13.70
2023-02-21T02:54:39.805Z,13.17
2023-02-21T02:55:39.525Z,12.30
2023-02-21T02:56:16.298Z,12.97
2023-02-21T02:56:48.954Z,12.93
2023-02-21T02:57:20.941Z,11.87
2023-02-21T02:57:53.600Z,11.80
2023-02-21T02:58:34.226Z,11.20
2023-02-21T02:59:18.210Z,12.73
2023-02-21T02:59:50.180Z,13.73
2023-02-21T03:00:22.748Z,13.07
2023-02-21T03:01:16.437Z,12.03
2023-02-21T03:02:07.621Z,11.33
2023-02-21T03:03:00.980Z,12.87
2023-02-21T03:04:08.333Z,13.07
2023-02-21T03:05:16.649Z,12.07
2023-02-21T03:06:26.437Z,11.53
2023-02-21T03:07:59.360Z,12.43
2023-02-21T03:08:48.754Z,11.33
2023-02-21T03:09:48.330Z,11.73
2023-02-21T03:10:35.030Z,11.40
2023-02-21T03:11:20.590Z,10.33
2023-02-21T03:12:17.400Z,10.10
2023-02-21T03:12:49.243Z,10.07
2023-02-21T03:13:43.413Z,10.37
2023-02-21T03:14:19.989Z,10.70
2023-02-21T03:15:02.567Z,9.43
2023-02-21T03:15:56.867Z,9.77
2023-02-21T03:16:35.345Z,8.87
2023-02-21T03:17:14.105Z,8.77
2023-02-21T03:17:57.429Z,9.20
2023-02-21T03:18:41.517Z,9.07
2023-02-21T03:19:19.501Z,9.07
2023-02-21T03:19:55.448Z,8.83
2023-02-21T03:20:29.425Z,8.70
2023-02-21T03:21:06.020Z,8.93
2023-02-21T03:21:55.642Z,8.93
2023-02-21T03:22:30.844Z,9.23
2023-02-21T03:23:05.052Z,9.27
2023-02-21T03:23:40.445Z,9.37
2023-02-21T03:24:16.290Z,9.57
2023-02-21T03:24:51.302Z,9.67
2023-02-21T03:25:25.477Z,9.03
2023-02-21T03:26:02.042Z,9.03
2023-02-21T03:26:37.753Z,9.13
2023-02-21T03:27:11.647Z,9.27
2023-02-21T03:27:44.836Z,10.07
2023-02-21T03:28:16.914Z,9.37
2023-02-21T03:28:50.855Z,9.47
2023-02-21T03:29:23.653Z,9.17
2023-02-21T03:30:00.685Z,9.20
2023-02-21T03:30:33.281Z,9.23
2023-02-21T03:31:08.813Z,9.30
2023-02-21T03:31:46.839Z,9.33
2023-02-21T03:32:32.022Z,9.83
2023-02-21T03:33:04.317Z,9.33
2023-02-21T03:33:36.348Z,9.10
2023-02-21T03:34:09.145Z,9.40
2023-02-21T03:34:46.083Z,9.30
2023-02-21T03:35:19.613Z,8.67
2023-02-21T03:35:53.609Z,9.40
2023-02-21T03:36:26.026Z,8.77
2023-02-21T03:36:57.822Z,8.80
2023-02-21T03:37:41.543Z,10.67
2023-02-21T03:38:13.481Z,9.93
2023-02-21T03:38:45.378Z,9.80
2023-02-21T03:39:17.389Z,10.37
2023-02-21T03:39:49.186Z,10.53
2023-02-21T03:40:27.373Z,10.03
2023-02-21T03:40:59.218Z,9.70
2023-02-21T03:41:31.401Z,9.83
2023-02-21T03:42:03.402Z,10.60
2023-02-21T03:42:35.407Z,10.40
2023-02-21T03:43:07.687Z,9.93
2023-02-21T03:43:39.586Z,9.97
2023-02-21T03:44:11.404Z,10.17
2023-02-21T03:44:43.214Z,9.83
2023-02-21T03:45:14.969Z,9.53
2023-02-21T03:45:46.737Z,10.00
2023-02-21T03:46:18.527Z,10.57
2023-02-21T03:46:50.380Z,11.10
2023-02-21T03:47:22.196Z,10.90
2023-02-21T03:47:53.943Z,10.90
2023-02-21T03:48:31.941Z,10.93
2023-02-21T03:49:04.313Z,11.13
2023-02-21T03:49:36.113Z,12.07
2023-02-21T03:50:08.275Z,11.63
2023-02-21T03:50:40.081Z,10.37
2023-02-21T03:51:12.725Z,10.67
2023-02-21T03:51:44.703Z,11.23
2023-02-21T03:52:16.547Z,11.87
2023-02-21T03:52:48.313Z,11.47
2023-02-21T03:53:20.114Z,10.50
2023-02-21T03:53:51.878Z,11.43
2023-02-21T03:54:23.693Z,11.33
2023-02-21T03:54:55.480Z,10.87
2023-02-21T03:55:27.344Z,11.73
2023-02-21T03:55:59.136Z,11.73
2023-02-21T03:56:41.634Z,11.23
2023-02-21T03:57:14.598Z,10.77
2023-02-21T03:57:46.791Z,11.60
2023-02-21T03:58:18.635Z,11.13
2023-02-21T03:58:50.380Z,10.77
2023-02-21T03:59:22.211Z,11.00
2023-02-21T03:59:54.393Z,10.43
2023-02-21T04:00:26.125Z,10.47
2023-02-21T04:00:57.997Z,11.13
2023-02-21T04:01:29.844Z,11.43
2023-02-21T04:02:01.945Z,10.40
2023-02-21T04:02:33.776Z,10.57
2023-02-21T04:03:05.735Z,10.87
2023-02-21T04:03:37.517Z,10.43
2023-02-21T04:04:09.999Z,11.03
2023-02-21T04:04:42.024Z,10.70
2023-02-21T04:05:13.822Z,11.27
2023-02-21T04:05:45.614Z,11.23
2023-02-21T04:06:17.932Z,11.23
2023-02-21T04:06:49.783Z,10.73
2023-02-21T04:07:21.991Z,10.80
2023-02-21T04:07:53.755Z,11.13
2023-02-21T04:08:25.699Z,11.10
2023-02-21T04:08:57.482Z,10.37
2023-02-21T04:09:29.235Z,10.67
2023-02-21T04:10:00.988Z,11.63
2023-02-21T04:10:37.879Z,12.77
2023-02-21T04:11:09.933Z,11.70
2023-02-21T04:11:45.865Z,12.23
2023-02-21T04:12:17.758Z,11.60
2023-02-21T04:12:49.528Z,11.50
2023-02-21T04:13:23.736Z,10.33
2023-02-21T04:13:55.512Z,10.70
2023-02-21T04:14:27.321Z,10.93
2023-02-21T04:14:59.165Z,10.73
2023-02-21T04:15:30.992Z,10.63
2023-02-21T04:16:02.708Z,10.17
2023-02-21T04:16:34.508Z,10.13
2023-02-21T04:17:06.333Z,11.20
2023-02-21T04:17:38.154Z,12.10
2023-02-21T04:18:10.043Z,11.47
2023-02-21T04:18:41.796Z,10.57
2023-02-21T04:19:13.557Z,10.23
2023-02-21T04:19:45.419Z,10.87
2023-02-21T04:20:17.285Z,10.03
2023-02-21T04:20:49.557Z,10.40
2023-02-21T04:21:21.564Z,10.47
2023-02-21T04:21:53.428Z,10.77
2023-02-21T04:22:25.279Z,10.87
2023-02-21T04:23:03.179Z,10.83
2023-02-21T04:23:35.741Z,10.30
2023-02-21T04:24:07.692Z,10.83
2023-02-21T04:24:39.623Z,10.83
2023-02-21T04:25:11.492Z,11.07
2023-02-21T04:25:43.217Z,11.23
2023-02-21T04:26:14.962Z,10.73
2023-02-21T04:26:46.837Z,10.77
2023-02-21T04:27:18.636Z,10.57
2023-02-21T04:27:50.583Z,10.37
2023-02-21T04:28:22.375Z,10.53
2023-02-21T04:28:54.151Z,11.57
2023-02-21T04:29:25.947Z,11.87
2023-02-21T04:29:57.892Z,12.27
2023-02-21T04:30:29.679Z,12.13
2023-02-21T04:31:01.486Z,12.03
2023-02-21T04:31:33.237Z,12.03
2023-02-21T04:32:05.343Z,11.53
2023-02-21T04:32:39.762Z,12.13
2023-02-21T04:33:11.894Z,12.53
2023-02-21T04:33:44.202Z,12.43
2023-02-21T04:34:16.133Z,12.43
2023-02-21T04:34:47.890Z,12.10
2023-02-21T04:35:19.735Z,11.50
2023-02-21T04:35:51.471Z,12.87
2023-02-21T04:36:23.244Z,13.03
2023-02-21T04:36:55.011Z,12.70
2023-02-21T04:37:26.756Z,12.73
2023-02-21T04:37:58.599Z,13.17
2023-02-21T04:38:30.397Z,11.60
2023-02-21T04:39:02.228Z,12.03
2023-02-21T04:39:34.025Z,12.90
2023-02-21T04:40:06.298Z,11.80
2023-02-21T04:40:38.087Z,12.27
2023-02-21T04:41:09.938Z,12.43
2023-02-21T04:41:41.807Z,12.27
2023-02-21T04:42:13.637Z,12.33
2023-02-21T04:42:45.413Z,12.27
2023-02-21T04:43:17.805Z,12.87
2023-02-21T04:43:49.595Z,11.83
2023-02-21T04:44:21.359Z,11.83
2023-02-21T04:44:59.968Z,12.23
2023-02-21T04:45:32.224Z,12.27
2023-02-21T04:46:04.174Z,11.97
2023-02-21T04:46:36.089Z,12.03
2023-02-21T04:47:07.904Z,12.33
2023-02-21T04:47:40.156Z,12.00
2023-02-21T04:48:11.896Z,11.77
2023-02-21T04:48:49.249Z,12.37
2023-02-21T04:49:21.041Z,11.93
2023-02-21T04:49:52.865Z,11.67
2023-02-21T04:50:24.684Z,12.87
2023-02-21T04:51:03.991Z,13.50
2023-02-21T04:51:45.261Z,13.27
2023-02-21T04:52:20.247Z,13.63
2023-02-21T04:52:52.040Z,13.27
2023-02-21T04:53:23.729Z,12.53
2023-02-21T04:53:56.137Z,13.13
2023-02-21T04:54:27.889Z,13.80
2023-02-21T04:54:59.831Z,12.30
2023-02-21T04:55:31.577Z,12.37
2023-02-21T04:56:03.504Z,12.43
2023-02-21T04:56:35.561Z,12.53
2023-02-21T04:57:07.321Z,11.77
2023-02-21T04:57:39.064Z,13.20
2023-02-21T04:58:10.865Z,12.73
2023-02-21T04:58:45.568Z,13.10
2023-02-21T04:59:17.870Z,13.77
2023-02-21T04:59:49.784Z,12.80
2023-02-21T05:00:21.779Z,12.33
2023-02-21T05:00:53.593Z,12.50
2023-02-21T05:01:29.279Z,12.90
2023-02-21T05:02:02.830Z,12.50
2023-02-21T05:02:34.946Z,12.57
2023-02-21T05:03:06.928Z,11.87
2023-02-21T05:03:38.760Z,12.23
2023-02-21T05:04:11.070Z,13.07
2023-02-21T05:04:43.347Z,12.43
2023-02-21T05:05:15.689Z,12.23
2023-02-21T05:05:47.822Z,12.80
2023-02-21T05:06:22.630Z,13.60
2023-02-21T05:06:54.609Z,13.97
2023-02-21T05:07:26.407Z,13.57
2023-02-21T05:07:58.184Z,13.97
2023-02-21T05:08:29.960Z,14.47
2023-02-21T05:09:02.336Z,13.63
2023-02-21T05:09:34.177Z,13.83
2023-02-21T05:10:06.217Z,13.10
2023-02-21T05:10:45.467Z,13.40
2023-02-21T05:11:19.188Z,12.90
2023-02-21T05:11:50.986Z,13.40
2023-02-21T05:12:22.838Z,14.10
2023-02-21T05:12:54.589Z,13.00
2023-02-21T05:13:26.434Z,13.90
2023-02-21T05:13:58.149Z,12.97
2023-02-21T05:14:29.912Z,12.60
2023-02-21T05:15:01.710Z,13.27
2023-02-21T05:15:33.552Z,13.73
2023-02-21T05:16:05.660Z,13.07
2023-02-21T05:16:37.471Z,14.00
2023-02-21T05:17:09.896Z,13.83
2023-02-21T05:17:41.936Z,13.20
2023-02-21T05:18:13.691Z,14.53
2023-02-21T05:18:47.215Z,13.53
2023-02-21T05:19:27.594Z,13.30
2023-02-21T05:19:59.593Z,13.13
2023-02-21T05:20:31.378Z,13.73
2023-02-21T05:21:03.569Z,13.97
2023-02-21T05:21:38.790Z,14.73
2023-02-21T05:22:10.668Z,14.43
2023-02-21T05:22:43.201Z,14.40
2023-02-21T05:23:17.295Z,14.60
2023-02-21T05:23:57.983Z,14.67
2023-02-21T05:24:30.992Z,13.97
2023-02-21T05:25:02.758Z,14.73
2023-02-21T05:25:34.487Z,14.23
2023-02-21T05:26:09.829Z,14.53
2023-02-21T05:26:41.572Z,14.47
2023-02-21T05:27:15.813Z,13.57
2023-02-21T05:27:48.150Z,14.27
2023-02-21T05:28:20.012Z,14.07
2023-02-21T05:28:52.815Z,14.70
2023-02-21T05:29:24.909Z,15.00
2023-02-21T05:29:56.750Z,15.90
2023-02-21T05:30:28.747Z,15.03
2023-02-21T05:31:01.240Z,15.30
2023-02-21T05:31:33.935Z,16.17
2023-02-21T05:32:05.757Z,16.00
2023-02-21T05:32:37.592Z,13.97
2023-02-21T05:33:09.378Z,13.33
2023-02-21T05:33:41.252Z,14.43
2023-02-21T05:34:16.620Z,14.37
2023-02-21T05:34:48.435Z,14.40
2023-02-21T05:35:20.340Z,14.87
2023-02-21T05:35:52.467Z,16.50
2023-02-21T05:36:25.801Z,17.20
2023-02-21T05:36:58.264Z,15.40
2023-02-21T05:37:31.434Z,16.17
2023-02-21T05:38:03.357Z,16.47
2023-02-21T05:38:46.350Z,15.50
2023-02-21T05:39:18.312Z,14.57
2023-02-21T05:39:50.373Z,15.33
2023-02-21T05:40:22.523Z,13.23
2023-02-21T05:40:54.631Z,14.07
2023-02-21T05:41:26.494Z,14.67
2023-02-21T05:41:58.258Z,14.60
2023-02-21T05:42:29.990Z,14.67
2023-02-21T05:43:01.754Z,15.07
2023-02-21T05:43:33.948Z,13.93
2023-02-21T05:44:06.456Z,13.93
2023-02-21T05:44:38.213Z,14.80
2023-02-21T05:45:10.719Z,14.13
2023-02-21T05:45:42.743Z,15.47
2023-02-21T05:46:25.297Z,14.30
2023-02-21T05:46:57.058Z,14.33
2023-02-21T05:47:28.843Z,13.93
2023-02-21T05:48:02.516Z,14.63
2023-02-21T05:48:34.247Z,14.97
2023-02-21T05:49:06.129Z,14.50
2023-02-21T05:49:37.992Z,15.33
2023-02-21T05:50:09.838Z,14.73
2023-02-21T05:50:41.657Z,14.13
2023-02-21T05:51:15.478Z,14.23
2023-02-21T05:51:47.639Z,14.77
2023-02-21T05:52:19.416Z,14.70
2023-02-21T05:52:51.200Z,14.20
2023-02-21T05:53:22.946Z,13.93
2023-02-21T05:53:54.814Z,14.00
2023-02-21T05:54:26.584Z,13.77
2023-02-21T05:54:58.606Z,14.50
2023-02-21T05:55:30.957Z,15.23
2023-02-21T05:56:03.176Z,16.17
2023-02-21T05:56:40.523Z,14.73
2023-02-21T05:57:12.432Z,13.60
2023-02-21T05:57:44.180Z,13.07
2023-02-21T05:58:15.910Z,13.57
2023-02-21T05:58:47.725Z,14.17
2023-02-21T05:59:20.808Z,14.17
2023-02-21T05:59:52.595Z,13.93
2023-02-21T06:00:30.266Z,14.93
2023-02-21T06:01:02.054Z,15.70
2023-02-21T06:01:33.790Z,15.27
2023-02-21T06:02:05.684Z,16.10
2023-02-21T06:02:37.641Z,15.50
2023-02-21T06:03:09.658Z,15.17
2023-02-21T06:03:41.471Z,15.43
2023-02-21T06:04:13.849Z,14.83
2023-02-21T06:04:45.709Z,15.57
2023-02-21T06:05:17.603Z,15.40
2023-02-21T06:05:49.373Z,15.47
2023-02-21T06:06:21.196Z,16.17
2023-02-21T06:06:53.025Z,16.57
2023-02-21T06:07:24.868Z,16.23
2023-02-21T06:07:56.651Z,15.67
2023-02-21T06:08:28.628Z,14.87
2023-02-21T06:09:00.868Z,14.33
2023-02-21T06:09:32.767Z,14.67
2023-02-21T06:10:05.724Z,15.03
2023-02-21T06:10:37.457Z,16.20
2023-02-21T06:11:09.231Z,14.87
2023-02-21T06:11:41.121Z,15.10
2023-02-21T06:12:13.023Z,15.73
2023-02-21T06:12:44.881Z,15.63
2023-02-21T06:13:16.830Z,14.70
2023-02-21T06:13:54.576Z,14.97
2023-02-21T06:14:27.099Z,15.13
2023-02-21T06:14:59.080Z,14.47
2023-02-21T06:15:30.901Z,14.10
2023-02-21T06:16:02.745Z,14.80
2023-02-21T06:16:39.016Z,16.17
2023-02-21T06:17:10.804Z,15.63
2023-02-21T06:17:43.528Z,14.00
2023-02-21T06:18:16.654Z,14.40
2023-02-21T06:18:57.218Z,15.20
2023-02-21T06:19:29.063Z,15.37
2023-02-21T06:20:00.800Z,14.83
2023-02-21T06:20:32.569Z,15.43
2023-02-21T06:21:04.512Z,15.83
2023-02-21T06:21:36.637Z,13.93
2023-02-21T06:22:08.469Z,13.73
2023-02-21T06:22:40.260Z,15.03
2023-02-21T06:23:12.028Z,14.80
2023-02-21T06:23:43.811Z,15.27
2023-02-21T06:24:15.717Z,16.83
2023-02-21T06:24:47.648Z,15.57
2023-02-21T06:25:19.607Z,15.10
2023-02-21T06:25:51.527Z,14.90
2023-02-21T06:26:23.972Z,13.80
2023-02-21T06:26:55.834Z,14.90
2023-02-21T06:27:27.626Z,14.43
2023-02-21T06:27:59.856Z,15.33
2023-02-21T06:28:32.045Z,15.10
2023-02-21T06:29:05.493Z,13.93
2023-02-21T06:29:37.328Z,13.37
2023-02-21T06:30:09.902Z,13.67
2023-02-21T06:30:41.848Z,14.97
2023-02-21T06:31:14.526Z,14.80
2023-02-21T06:31:47.184Z,15.13
2023-02-21T06:32:19.183Z,16.37
2023-02-21T06:32:51.062Z,15.63
2023-02-21T06:33:23.522Z,14.67
2023-02-21T06:33:55.298Z,14.83
2023-02-21T06:34:28.430Z,15.23
2023-02-21T06:35:00.298Z,13.97
2023-02-21T06:35:32.083Z,14.33
2023-02-21T06:36:06.092Z,14.87
2023-02-21T06:36:39.405Z,13.83
2023-02-21T06:37:11.916Z,14.30
2023-02-21T06:37:43.703Z,14.53
2023-02-21T06:38:18.299Z,14.67
2023-02-21T06:38:52.039Z,15.03
2023-02-21T06:39:24.572Z,14.80
2023-02-21T06:39:56.568Z,15.37
2023-02-21T06:40:28.390Z,15.10
2023-02-21T06:41:01.646Z,16.53
2023-02-21T06:41:33.719Z,15.40
2023-02-21T06:42:06.545Z,14.30
2023-02-21T06:42:38.328Z,14.23
2023-02-21T06:43:10.164Z,14.87
2023-02-21T06:43:42.057Z,14.53
2023-02-21T06:44:14.033Z,13.93
2023-02-21T06:44:47.954Z,14.43
2023-02-21T06:45:19.808Z,14.13
2023-02-21T06:45:52.067Z,14.70
2023-02-21T06:46:28.789Z,14.37
2023-02-21T06:47:00.689Z,14.60
2023-02-21T06:47:32.491Z,14.50
2023-02-21T06:48:04.300Z,13.50
2023-02-21T06:48:36.625Z,14.03
2023-02-21T06:49:08.383Z,13.97
2023-02-21T06:49:40.724Z,13.10
2023-02-21T06:50:12.546Z,14.13
2023-02-21T06:50:44.855Z,14.50
2023-02-21T06:51:17.353Z,14.40
2023-02-21T06:51:49.330Z,14.10
2023-02-21T06:52:21.205Z,13.57
2023-02-21T06:52:52.982Z,13.67
2023-02-21T06:53:24.792Z,13.80
2023-02-21T06:53:58.482Z,14.23
2023-02-21T06:54:30.368Z,14.33
2023-02-21T06:55:02.493Z,14.60
2023-02-21T06:55:34.283Z,13.67
2023-02-21T06:56:06.575Z,12.83
2023-02-21T06:56:38.487Z,13.63
2023-02-21T06:57:10.365Z,13.50
2023-02-21T06:57:42.168Z,13.77
2023-02-21T06:58:14.340Z,13.57
2023-02-21T06:58:46.746Z,13.60
2023-02-21T06:59:18.471Z,14.13
2023-02-21T06:59:50.243Z,14.00
2023-02-21T07:00:22.310Z,13.37
2023-02-21T07:00:54.135Z,13.37
2023-02-21T07:01:30.425Z,14.53
2023-02-21T07:02:05.013Z,15.73
2023-02-21T07:02:38.863Z,14.77
2023-02-21T07:03:10.784Z,15.40
2023-02-21T07:03:44.455Z,13.93
2023-02-21T07:04:16.563Z,14.50
2023-02-21T07:04:49.158Z,15.20
2023-02-21T07:05:21.196Z,14.37
2023-02-21T07:05:53.367Z,14.60
2023-02-21T07:06:26.382Z,14.07
2023-02-21T07:06:59.851Z,14.37
2023-02-21T07:07:32.466Z,14.33
2023-02-21T07:08:05.337Z,13.27
2023-02-21T07:08:39.979Z,13.10
2023-02-21T07:09:12.401Z,13.43
2023-02-21T07:09:44.327Z,13.70
2023-02-21T07:10:16.658Z,13.17
2023-02-21T07:10:48.729Z,12.83
2023-02-21T07:11:20.822Z,12.70
2023-02-21T07:11:52.662Z,13.53
2023-02-21T07:12:24.509Z,13.40
2023-02-21T07:12:59.723Z,13.83
2023-02-21T07:13:32.214Z,13.70
2023-02-21T07:14:04.643Z,13.43
2023-02-21T07:14:36.966Z,12.97
2023-02-21T07:15:09.146Z,13.13
2023-02-21T07:15:41.596Z,12.53
2023-02-21T07:16:14.690Z,12.80
2023-02-21T07:16:46.552Z,13.27
2023-02-21T07:17:19.345Z,13.10
2023-02-21T07:17:51.914Z,13.37
2023-02-21T07:18:23.778Z,13.77
2023-02-21T07:18:56.260Z,13.23
2023-02-21T07:19:28.478Z,13.53
2023-02-21T07:20:00.410Z,13.00
2023-02-21T07:20:33.485Z,13.20
2023-02-21T07:21:08.980Z,14.10
2023-02-21T07:21:40.914Z,13.53
2023-02-21T07:22:12.940Z,13.80
2023-02-21T07:22:44.726Z,12.37
2023-02-21T07:23:16.723Z,13.30
2023-02-21T07:23:48.785Z,13.27
2023-02-21T07:24:20.808Z,12.10
2023-02-21T07:24:53.925Z,12.60
2023-02-21T07:25:25.912Z,11.93
2023-02-21T07:25:57.682Z,11.87
2023-02-21T07:26:29.673Z,12.23
2023-02-21T07:27:01.500Z,12.53
2023-02-21T07:27:33.361Z,13.20
2023-02-21T07:28:05.330Z,13.03
2023-02-21T07:28:41.093Z,13.57
2023-02-21T07:29:13.081Z,13.37
2023-02-21T07:29:48.617Z,12.47
2023-02-21T07:30:21.217Z,12.50
2023-02-21T07:30:53.018Z,12.67
2023-02-21T07:31:24.931Z,13.13
2023-02-21T07:31:58.136Z,13.43
2023-02-21T07:32:30.049Z,13.33
2023-02-21T07:33:01.932Z,13.20
2023-02-21T07:33:34.643Z,12.10
2023-02-21T07:34:06.451Z,13.10
2023-02-21T07:34:41.448Z,13.23
2023-02-21T07:35:13.872Z,12.97
2023-02-21T07:35:46.546Z,13.00
2023-02-21T07:36:18.584Z,13.33
2023-02-21T07:36:51.031Z,13.60
2023-02-21T07:37:22.879Z,13.67
2023-02-21T07:37:54.842Z,12.97
2023-02-21T07:38:31.796Z,13.17
2023-02-21T07:39:03.677Z,12.83
2023-02-21T07:39:35.541Z,13.03
2023-02-21T07:40:08.294Z,13.07
2023-02-21T07:40:40.418Z,12.07
2023-02-21T07:41:15.847Z,11.83
2023-02-21T07:41:47.876Z,13.03
2023-02-21T07:42:20.421Z,12.93
2023-02-21T07:42:52.184Z,12.57
2023-02-21T07:43:26.044Z,12.87
2023-02-21T07:43:57.777Z,13.03
2023-02-21T07:44:29.686Z,13.00
2023-02-21T07:45:02.127Z,12.07
2023-02-21T07:45:33.954Z,12.47
2023-02-21T07:46:11.685Z,12.23
2023-02-21T07:46:45.677Z,12.47
2023-02-21T07:47:20.926Z,12.83
2023-02-21T07:47:54.572Z,14.83
2023-02-21T07:48:33.107Z,16.73
2023-02-21T07:49:09.459Z,15.70
2023-02-21T07:49:41.851Z,16.23
2023-02-21T07:50:13.685Z,13.23
2023-02-21T07:50:46.325Z,13.10
2023-02-21T07:51:18.607Z,13.17
2023-02-21T07:51:51.341Z,14.13
2023-02-21T07:52:23.603Z,13.77
2023-02-21T07:52:56.731Z,12.97
2023-02-21T07:53:29.187Z,12.27
2023-02-21T07:54:00.982Z,12.23
2023-02-21T07:54:32.899Z,12.67
2023-02-21T07:55:05.153Z,12.17
2023-02-21T07:55:36.985Z,11.83
2023-02-21T07:56:08.791Z,12.60
2023-02-21T07:56:50.151Z,13.13
2023-02-21T07:57:22.149Z,12.23
2023-02-21T07:57:54.061Z,11.73
2023-02-21T07:58:26.202Z,14.20
2023-02-21T07:58:57.918Z,15.30
2023-02-21T07:59:29.727Z,14.07
2023-02-21T08:00:01.734Z,13.10
2023-02-21T08:00:33.809Z,13.37
2023-02-21T08:01:07.135Z,12.07
2023-02-21T08:01:38.955Z,11.93
2023-02-21T08:02:13.985Z,11.43
2023-02-21T08:02:49.177Z,11.60
2023-02-21T08:03:21.671Z,11.53
2023-02-21T08:03:53.660Z,11.87
2023-02-21T08:04:25.878Z,12.03
2023-02-21T08:04:57.877Z,11.97
2023-02-21T08:05:29.688Z,11.53
2023-02-21T08:06:01.655Z,11.83
2023-02-21T08:06:36.567Z,11.93
2023-02-21T08:07:09.993Z,11.43
2023-02-21T08:07:42.044Z,12.13
2023-02-21T08:08:15.765Z,11.63
2023-02-21T08:08:47.773Z,12.17
2023-02-21T08:09:20.073Z,12.10
2023-02-21T08:09:51.877Z,11.93
2023-02-21T08:10:27.377Z,11.70
2023-02-21T08:10:59.722Z,11.70
2023-02-21T08:11:32.853Z,11.20
2023-02-21T08:12:06.023Z,12.00
2023-02-21T08:12:38.062Z,13.10
2023-02-21T08:13:09.854Z,13.10
2023-02-21T08:13:42.341Z,12.63